Catàleg de serveis del Meteocat
Campanya meteocatpedra

Dades de l'estació automàtica Montsec d'Ares (1.572 m)

?
?
Resum diari 23:00 TU
Dades diàries de l'estació meteorològica
Temperatura mitjana 16.6 °C
Temperatura màxima 21.9 °C 15:15 TU
Temperatura mínima 11.7 °C 4:39 TU
Humitat relativa mitjana 49%
Precipitació acumulada 0.0 mm
Ratxa màxima del vent (10 m) 40.3 km/h - 57º 5:34 TU
Irradiació solar global 32.7 MJ/m2

El tram horari està expressat en Temps Universal (TU). Cal sumar una hora en horari d'hivern i dues en horari d'estiu per passar a l'hora oficial.

Montsec d'Ares (1.572 m)

Metadades estació meteorol´gica
Municipi Sant Esteve de la Sarga
Comarca Pallars Jussà
Altitud 1572 m
Data alta 17.06.2003
Estat actual Operativa
Dades de període
Període
TU
TM
°C
TX
°C
TN
°C
HRM
%
PPT
mm
VVM (10 m)
km/h
DVM (10 m)
graus
VVX (10 m)
km/h
PM
hPa
RS
W/m2
00:00 - 00:30 13.0 13.2 12.8 64 0.0 27.7 63 33.5 849.6 0
00:30 - 01:00 12.8 12.9 12.6 63 0.0 25.6 67 32.0 849.4 0
01:00 - 01:30 12.7 13.0 12.4 62 0.0 25.6 62 34.9 849.2 0
01:30 - 02:00 12.3 12.4 12.1 63 0.0 30.2 64 38.2 849.0 0
02:00 - 02:30 12.2 12.3 12.1 62 0.0 30.6 62 37.8 849.0 0
02:30 - 03:00 12.1 12.2 11.9 61 0.0 28.8 59 36.4 848.8 0
03:00 - 03:30 12.2 12.3 12.0 59 0.0 27.4 60 32.0 848.8 0
03:30 - 04:00 12.1 12.2 11.9 59 0.0 29.2 59 35.6 848.8 0
04:00 - 04:30 12.0 12.1 11.9 59 0.0 26.6 59 33.5 848.8 0
04:30 - 05:00 11.9 12.1 11.7 60 0.0 27.0 59 33.5 848.9 14
05:00 - 05:30 12.4 12.8 11.9 58 0.0 28.1 59 38.2 848.8 69
05:30 - 06:00 13.0 13.1 12.8 55 0.0 29.9 58 40.3 848.8 155
06:00 - 06:30 13.4 13.8 13.2 53 0.0 29.9 57 37.8 848.9 253
06:30 - 07:00 14.0 14.3 13.8 51 0.0 28.1 56 34.9 849.1 357
07:00 - 07:30 14.5 14.9 14.0 49 0.0 24.5 54 31.7 849.3 460
07:30 - 08:00 15.2 15.4 14.9 48 0.0 23.0 51 29.2 849.5 563
08:00 - 08:30 15.8 16.6 15.2 47 0.0 19.4 50 28.1 849.6 662
08:30 - 09:00 16.2 16.8 15.7 44 0.0 13.7 34 24.1 849.8 752
09:00 - 09:30 16.9 17.6 16.3 43 0.0 9.4 29 17.6 849.8 829
09:30 - 10:00 17.2 17.9 16.6 41 0.0 8.6 360 20.2 849.9 899
10:00 - 10:30 17.7 18.6 17.3 38 0.0 7.9 357 16.9 850.0 954
10:30 - 11:00 18.3 18.8 17.7 34 0.0 12.6 6 23.8 850.1 1.008
11:00 - 11:30 18.8 19.2 18.0 30 0.0 13.3 343 26.6 850.1 1.038
11:30 - 12:00 19.5 20.2 18.5 32 0.0 15.1 339 28.8 850.0 1.051
12:00 - 12:30 19.9 20.4 19.2 34 0.0 10.1 22 28.4 849.9 1.045
12:30 - 13:00 19.8 20.6 19.0 49 0.0 15.1 318 27.0 849.9 1.023
13:00 - 13:30 20.3 20.7 19.7 45 0.0 14.4 314 25.6 849.9 993
13:30 - 14:00 20.6 21.1 19.8 44 0.0 15.5 304 31.0 849.7 957
14:00 - 14:30 20.9 21.4 20.5 42 0.0 13.3 301 26.3 849.8 900
14:30 - 15:00 21.0 21.3 20.7 45 0.0 15.1 249 29.9 849.8 832
15:00 - 15:30 21.4 21.9 20.9 44 0.0 13.3 268 32.8 849.9 752
15:30 - 16:00 21.0 21.3 20.7 44 0.0 15.1 247 28.1 849.8 667
16:00 - 16:30 20.8 21.1 20.5 44 0.0 16.2 246 30.6 849.9 573
16:30 - 17:00 20.7 21.1 20.3 44 0.0 15.5 247 27.7 850.1 478
17:00 - 17:30 20.4 21.0 20.1 45 0.0 15.1 245 27.7 850.3 379
17:30 - 18:00 19.9 20.3 19.6 46 0.0 17.6 272 26.6 850.5 276
18:00 - 18:30 19.3 19.5 18.9 46 0.0 18.7 279 28.1 850.6 178
18:30 - 19:00 18.4 18.9 17.9 46 0.0 20.9 280 29.5 850.9 90
19:00 - 19:30 17.5 17.9 17.0 48 0.0 16.9 283 24.8 851.1 22
19:30 - 20:00 16.9 17.2 16.7 50 0.0 13.7 306 21.6 851.5 0
20:00 - 20:30 17.4 17.7 16.9 48 0.0 8.6 338 14.4 851.8 0
20:30 - 21:00 17.2 17.6 16.8 48 0.0 5.4 88 11.9 852.3 0
21:00 - 21:30 16.7 17.2 16.0 51 0.0 10.1 118 18.0 852.5 0
21:30 - 22:00 15.8 16.4 15.5 56 0.0 8.3 120 16.2 852.6 0
22:00 - 22:30 16.2 16.4 16.0 52 0.0 3.2 234 7.6 852.7 0
22:30 - 23:00 16.3 16.6 16.1 51 0.0 1.4 2 6.1 852.8 0
23:00 - 23:30 16.2 16.3 16.1 52 0.0 4.3 158 7.6 852.8 0

Les dades en taronja només han passat un control de qualitat automàtic. Resta pendent la seva validació definitiva.